Time;durP1;ratioP1;P1;durP2;ratioP2;P2;SDS_P1;SDS_P2;PMS_P1;PMS_P2;Temp;Humidity;BMP_temperature;BMP_pressure;BME280_temperature;BME280_humidity;BME280_pressure;Samples;Min_cycle;Max_cycle;Signal;HPM_P1;HPM_P2
2023/10/18 00:01:01;;;;;;;4.00;3.37;;;6.60;99.90;;;;;;6076113;23;20357;-73
2023/10/18 00:03:31;;;;;;;5.30;3.50;;;6.70;99.90;;;;;;6075279;23;20392;-73
2023/10/18 00:06:11;;;;;;;4.10;3.30;;;6.70;99.90;;;;;;6077141;23;20137;-72
2023/10/18 00:08:39;;;;;;;5.90;3.47;;;6.60;99.90;;;;;;6074105;23;20380;-72
2023/10/18 00:11:05;;;;;;;5.10;3.67;;;6.60;99.90;;;;;;6074186;23;20369;-71
2023/10/18 00:13:32;;;;;;;8.33;3.80;;;6.60;99.90;;;;;;6050314;23;20393;-72
2023/10/18 00:16:00;;;;;;;4.40;3.80;;;6.60;99.90;;;;;;6077527;23;20142;-72
2023/10/18 00:18:25;;;;;;;3.77;3.37;;;6.60;99.90;;;;;;6075662;23;20413;-72
2023/10/18 00:20:59;;;;;;;5.83;3.60;;;6.60;99.90;;;;;;6050550;23;20376;-71
2023/10/18 00:23:24;;;;;;;4.20;3.40;;;6.70;99.90;;;;;;6075481;23;20173;-72
2023/10/18 00:25:50;;;;;;;7.10;4.47;;;6.60;99.90;;;;;;6077329;23;20512;-71
2023/10/18 00:28:16;;;;;;;5.07;3.67;;;6.60;99.90;;;;;;6050970;23;20149;-71
2023/10/18 00:30:41;;;;;;;8.87;4.03;;;6.50;99.90;;;;;;6077007;23;20149;-71
2023/10/18 00:33:07;;;;;;;5.00;3.83;;;6.50;99.90;;;;;;6049909;23;20518;-73
2023/10/18 00:35:36;;;;;;;6.77;3.93;;;6.50;99.90;;;;;;6074684;23;20142;-72
2023/10/18 00:38:03;;;;;;;4.67;3.67;;;6.50;99.90;;;;;;6074570;23;20409;-72
2023/10/18 00:43:16;;;;;;;7.90;4.50;;;6.50;99.90;;;;;;6048894;23;20635;-72
2023/10/18 00:45:47;;;;;;;4.80;4.03;;;6.40;99.90;;;;;;6050235;23;20525;-72
2023/10/18 00:48:14;;;;;;;8.57;3.63;;;6.40;99.90;;;;;;6073480;23;20374;-72
2023/10/18 00:50:45;;;;;;;6.60;4.20;;;6.40;99.90;;;;;;6048535;23;20398;-71
2023/10/18 00:53:20;;;;;;;7.00;4.07;;;6.40;99.90;;;;;;6074232;23;20381;-73
2023/10/18 00:55:52;;;;;;;4.53;3.33;;;6.40;99.90;;;;;;6026326;23;20723;-73
2023/10/18 00:58:22;;;;;;;5.40;4.33;;;6.40;99.90;;;;;;6025491;23;20436;-72
2023/10/18 01:00:49;;;;;;;5.53;4.07;;;6.30;99.90;;;;;;6073536;23;20389;-73
2023/10/18 01:03:35;;;;;;;4.47;3.67;;;6.30;99.90;;;;;;6074574;23;20875;-72
2023/10/18 01:06:20;;;;;;;7.43;4.50;;;6.30;99.90;;;;;;6075058;23;20365;-72
2023/10/18 01:08:47;;;;;;;5.67;3.90;;;6.30;99.90;;;;;;6075276;23;20373;-72
2023/10/18 01:11:27;;;;;;;5.53;4.17;;;6.30;99.90;;;;;;6048494;23;20382;-71
2023/10/18 01:13:55;;;;;;;4.90;4.13;;;6.30;99.90;;;;;;6049181;23;20401;-71
2023/10/18 01:16:21;;;;;;;6.07;4.30;;;6.40;99.90;;;;;;6074532;23;20377;-72
2023/10/18 01:18:48;;;;;;;4.80;4.00;;;6.30;99.90;;;;;;6074188;23;20628;-73
2023/10/18 01:21:20;;;;;;;3.70;3.23;;;6.30;99.90;;;;;;6073961;23;20405;-71
2023/10/18 01:23:51;;;;;;;7.93;3.80;;;6.30;99.90;;;;;;6071553;23;20393;-71
2023/10/18 01:26:18;;;;;;;6.63;3.57;;;6.30;99.90;;;;;;6074192;23;20413;-70
2023/10/18 01:28:44;;;;;;;4.60;3.70;;;6.30;99.90;;;;;;6073192;23;20362;-71
2023/10/18 01:31:12;;;;;;;7.00;4.20;;;6.30;99.90;;;;;;6074376;23;20668;-72
2023/10/18 01:33:45;;;;;;;4.50;4.10;;;6.30;99.90;;;;;;6073905;23;20472;-72
2023/10/18 01:36:13;;;;;;;5.77;3.10;;;6.30;99.90;;;;;;6074759;23;20393;-72
2023/10/18 01:38:42;;;;;;;4.47;3.47;;;6.30;99.90;;;;;;6072952;23;20415;-72
2023/10/18 01:41:09;;;;;;;5.13;3.90;;;6.30;99.90;;;;;;6048401;23;20404;-72
2023/10/18 01:43:37;;;;;;;5.20;4.23;;;6.30;99.90;;;;;;6074468;23;20433;-71
2023/10/18 01:46:08;;;;;;;7.00;4.80;;;6.30;99.90;;;;;;6049975;23;20366;-73
2023/10/18 01:48:37;;;;;;;6.53;4.17;;;6.30;99.90;;;;;;6049240;23;20386;-72
2023/10/18 01:51:05;;;;;;;8.00;3.80;;;6.30;99.90;;;;;;6049587;23;20437;-73
2023/10/18 01:53:32;;;;;;;7.93;4.20;;;6.30;99.90;;;;;;6072209;23;20404;-73
2023/10/18 01:56:01;;;;;;;5.47;3.90;;;6.30;99.90;;;;;;6048807;23;20460;-72
2023/10/18 01:58:28;;;;;;;4.73;4.10;;;6.30;99.90;;;;;;6048549;23;20408;-72
2023/10/18 02:00:56;;;;;;;4.50;3.83;;;6.30;99.90;;;;;;6056595;23;20361;-73
2023/10/18 02:03:25;;;;;;;4.83;3.60;;;6.30;99.90;;;;;;6090870;23;20505;-72
2023/10/18 02:05:51;;;;;;;6.30;3.57;;;6.30;99.90;;;;;;6040144;23;20432;-72
2023/10/18 02:08:16;;;;;;;5.10;3.70;;;6.30;99.90;;;;;;6077721;23;20369;-71
2023/10/18 02:10:44;;;;;;;3.73;3.27;;;6.30;99.90;;;;;;6050552;23;20133;-71
2023/10/18 02:13:13;;;;;;;4.60;3.33;;;6.40;99.90;;;;;;6073848;23;20370;-71
2023/10/18 02:15:39;;;;;;;6.07;3.80;;;6.30;99.90;;;;;;6074005;23;20370;-71
2023/10/18 02:18:08;;;;;;;4.83;3.43;;;6.30;99.90;;;;;;6048868;23;20492;-74
2023/10/18 02:20:36;;;;;;;4.40;3.07;;;6.30;99.90;;;;;;6076538;23;20389;-72
2023/10/18 02:23:02;;;;;;;4.57;3.37;;;6.30;99.90;;;;;;6074179;23;20356;-71
2023/10/18 02:25:46;;;;;;;5.53;3.77;;;6.40;99.90;;;;;;6051769;23;20620;-71
2023/10/18 02:28:24;;;;;;;4.87;3.57;;;6.40;99.90;;;;;;6049716;23;20425;-73
2023/10/18 02:31:24;;;;;;;7.10;4.00;;;6.40;99.90;;;;;;6076519;23;20407;-72
2023/10/18 02:33:42;;;;;;;5.50;3.30;;;6.40;99.90;;;;;;6070725;23;20680;-72
2023/10/18 02:36:12;;;;;;;4.90;3.40;;;6.50;99.90;;;;;;6076014;23;20373;-72
2023/10/18 02:38:40;;;;;;;5.07;4.00;;;6.50;99.90;;;;;;6050591;23;20169;-72
2023/10/18 02:41:15;;;;;;;5.23;3.47;;;6.50;99.90;;;;;;6051564;23;20390;-72
2023/10/18 02:43:52;;;;;;;5.93;3.83;;;6.50;99.90;;;;;;6075358;23;20408;-72
2023/10/18 02:46:25;;;;;;;6.63;3.73;;;6.50;99.90;;;;;;6050119;23;20370;-71
2023/10/18 02:48:55;;;;;;;8.30;3.90;;;6.60;99.90;;;;;;6049508;23;20609;-71
2023/10/18 02:51:26;;;;;;;8.43;3.60;;;6.60;99.90;;;;;;6073708;23;20373;-73
2023/10/18 02:56:52;;;;;;;5.40;3.83;;;6.60;99.90;;;;;;6050048;23;20417;-72
2023/10/18 02:59:24;;;;;;;8.17;4.27;;;6.50;99.90;;;;;;6050086;23;20830;-72
2023/10/18 03:01:54;;;;;;;4.70;3.23;;;6.50;99.90;;;;;;6077333;23;20637;-72
2023/10/18 03:04:22;;;;;;;5.10;3.70;;;6.50;99.90;;;;;;6074189;23;20500;-72
2023/10/18 03:06:52;;;;;;;7.20;4.10;;;6.50;99.90;;;;;;6074919;23;20412;-73
2023/10/18 03:09:26;;;;;;;4.17;3.73;;;6.50;99.90;;;;;;6074202;23;20389;-71
2023/10/18 03:11:55;;;;;;;4.77;3.60;;;6.50;99.90;;;;;;6074844;23;20843;-72
2023/10/18 03:14:39;;;;;;;4.83;3.67;;;6.40;99.90;;;;;;6049200;23;20492;-73
2023/10/18 03:17:41;;;;;;;9.50;4.13;;;6.40;99.90;;;;;;6074447;23;20676;-72
2023/10/18 03:20:01;;;;;;;6.97;4.17;;;6.40;99.90;;;;;;6069022;23;20477;-72
2023/10/18 03:22:37;;;;;;;5.73;3.80;;;6.50;99.90;;;;;;6075360;23;20429;-73
2023/10/18 03:25:09;;;;;;;4.13;3.53;;;6.50;99.90;;;;;;6048491;23;20466;-73
2023/10/18 03:27:41;;;;;;;5.50;4.20;;;6.50;99.90;;;;;;6049135;23;20454;-72
2023/10/18 03:30:17;;;;;;;7.90;3.43;;;6.50;99.90;;;;;;6051247;23;20720;-73
2023/10/18 03:32:43;;;;;;;6.97;4.17;;;6.50;99.90;;;;;;6050223;23;20397;-72
2023/10/18 03:35:09;;;;;;;4.97;3.50;;;6.50;99.90;;;;;;6076565;23;20393;-74
2023/10/18 03:37:40;;;;;;;5.20;3.23;;;6.50;99.90;;;;;;6073584;23;20469;-71
2023/10/18 03:40:18;;;;;;;4.40;3.13;;;6.40;99.90;;;;;;6050768;23;20374;-71
2023/10/18 03:42:45;;;;;;;6.33;2.93;;;6.40;99.90;;;;;;6049393;23;20376;-73
2023/10/18 03:45:11;;;;;;;5.07;3.50;;;6.40;99.90;;;;;;6074656;23;20799;-72
2023/10/18 03:47:38;;;;;;;8.50;3.23;;;6.40;99.90;;;;;;6076390;23;20531;-73
2023/10/18 03:50:13;;;;;;;4.33;3.27;;;6.40;99.90;;;;;;6050023;23;20146;-73
2023/10/18 03:52:39;;;;;;;6.50;4.30;;;6.50;99.90;;;;;;6075489;23;20695;-74
2023/10/18 03:55:13;;;;;;;6.90;4.27;;;6.50;99.90;;;;;;6049839;23;20888;-72
2023/10/18 03:57:39;;;;;;;5.33;4.10;;;6.50;99.90;;;;;;6073411;23;20725;-73
2023/10/18 04:02:59;;;;;;;9.33;4.47;;;6.40;99.90;;;;;;6050045;23;20472;-73
2023/10/18 04:05:42;;;;;;;7.63;4.10;;;6.40;99.90;;;;;;6075701;23;20365;-71
2023/10/18 04:08:17;;;;;;;7.30;4.50;;;6.40;99.90;;;;;;6077813;23;20711;-72
2023/10/18 04:10:44;;;;;;;6.67;3.50;;;6.40;99.90;;;;;;6075929;23;20365;-72
2023/10/18 04:13:13;;;;;;;7.90;4.10;;;6.40;99.90;;;;;;6073318;23;20389;-71
2023/10/18 04:15:45;;;;;;;6.03;3.77;;;6.40;99.90;;;;;;6075285;23;20369;-71
2023/10/18 04:18:12;;;;;;;4.80;4.20;;;6.40;99.90;;;;;;6073509;23;20879;-72
2023/10/18 04:20:42;;;;;;;5.87;3.23;;;6.40;99.90;;;;;;6049446;23;20460;-73
2023/10/18 04:23:25;;;;;;;10.20;4.00;;;6.40;99.90;;;;;;6074177;23;20380;-73
2023/10/18 04:25:57;;;;;;;4.80;3.57;;;6.40;99.90;;;;;;6073951;23;20429;-73
2023/10/18 04:28:30;;;;;;;7.20;3.93;;;6.40;99.90;;;;;;6074482;23;20373;-73
2023/10/18 04:31:03;;;;;;;6.10;3.90;;;6.40;99.90;;;;;;6076427;23;20372;-75
2023/10/18 04:33:36;;;;;;;5.40;3.67;;;6.40;99.90;;;;;;6078500;23;20401;-73
2023/10/18 04:36:15;;;;;;;6.20;3.87;;;6.40;99.90;;;;;;6078767;23;20378;-73
2023/10/18 04:38:44;;;;;;;4.47;3.53;;;6.40;99.90;;;;;;6079644;23;20433;-74
2023/10/18 04:41:12;;;;;;;5.20;3.87;;;6.40;99.90;;;;;;6079671;23;20382;-73
2023/10/18 04:43:38;;;;;;;4.93;3.50;;;6.40;99.90;;;;;;6077204;23;20414;-73
2023/10/18 04:46:14;;;;;;;4.60;3.60;;;6.50;99.90;;;;;;6053328;23;20418;-74
2023/10/18 04:51:33;;;;;;;6.33;4.13;;;6.60;99.90;;;;;;6054255;23;20396;-73
2023/10/18 04:54:02;;;;;;;5.87;4.27;;;6.60;99.90;;;;;;6079301;23;20485;-72
2023/10/18 04:56:34;;;;;;;6.77;4.90;;;6.60;99.90;;;;;;6053344;23;20429;-72
2023/10/18 04:59:06;;;;;;;13.40;4.80;;;6.60;99.90;;;;;;6054258;23;20394;-73
2023/10/18 05:01:36;;;;;;;9.77;4.80;;;6.60;99.90;;;;;;6052965;23;20477;-72
2023/10/18 05:04:18;;;;;;;8.23;4.73;;;6.60;99.90;;;;;;6078224;23;20460;-71
2023/10/18 05:06:55;;;;;;;10.00;5.23;;;6.60;99.90;;;;;;6054075;23;20771;-73
2023/10/18 05:09:34;;;;;;;8.23;4.93;;;6.70;99.90;;;;;;6080487;23;20380;-73
2023/10/18 05:14:50;;;;;;;11.43;4.70;;;6.70;99.90;;;;;;6080557;23;20720;-73
2023/10/18 05:17:23;;;;;;;9.93;4.43;;;6.60;99.90;;;;;;6079931;23;20429;-74
2023/10/18 05:19:50;;;;;;;8.77;5.00;;;6.60;99.90;;;;;;6053045;23;20366;-74
2023/10/18 05:22:25;;;;;;;8.70;4.87;;;6.60;99.90;;;;;;6031663;23;20378;-73
2023/10/18 05:27:45;;;;;;;7.80;5.00;;;6.60;99.90;;;;;;6055919;23;20373;-73
2023/10/18 05:30:26;;;;;;;9.00;4.70;;;6.50;99.90;;;;;;6058970;23;20377;-74
2023/10/18 05:35:27;;;;;;;7.57;4.83;;;6.50;99.90;;;;;;6082084;23;20380;-75
2023/10/18 05:38:06;;;;;;;7.70;5.43;;;6.60;99.90;;;;;;6083855;23;20424;-74
2023/10/18 05:40:45;;;;;;;11.30;5.30;;;6.60;99.90;;;;;;6058941;23;20409;-75
2023/10/18 05:43:22;;;;;;;6.40;4.87;;;6.60;99.90;;;;;;6057001;23;20376;-74
2023/10/18 05:45:48;;;;;;;9.00;5.10;;;6.60;99.90;;;;;;6058282;23;20369;-74
2023/10/18 05:48:17;;;;;;;9.30;5.50;;;6.60;99.90;;;;;;6057428;23;20368;-75
2023/10/18 05:50:49;;;;;;;11.00;5.00;;;6.60;99.90;;;;;;6055407;23;20389;-77
2023/10/18 05:53:18;;;;;;;9.63;4.80;;;6.60;99.90;;;;;;6056789;23;20478;-73
2023/10/18 05:55:53;;;;;;;7.60;4.10;;;6.60;99.90;;;;;;6082979;23;20466;-75
2023/10/18 05:58:26;;;;;;;11.70;5.40;;;6.60;99.90;;;;;;6059100;23;20420;-75
2023/10/18 06:00:55;;;;;;;9.40;5.17;;;6.60;99.90;;;;;;6036593;23;20385;-75
2023/10/18 06:03:22;;;;;;;9.23;4.67;;;6.50;99.90;;;;;;6061582;23;20401;-76
2023/10/18 06:05:55;;;;;;;17.17;7.30;;;6.60;99.90;;;;;;6061601;23;20369;-74
2023/10/18 06:08:22;;;;;;;9.00;4.50;;;6.50;99.90;;;;;;6060249;23;20457;-76
2023/10/18 06:11:06;;;;;;;8.17;5.10;;;6.60;99.90;;;;;;6058902;23;20702;-74
2023/10/18 06:13:40;;;;;;;10.70;5.53;;;6.50;99.90;;;;;;6067511;23;20408;-74
2023/10/18 06:16:18;;;;;;;11.80;4.97;;;6.60;99.90;;;;;;6066701;23;20374;-75
2023/10/18 06:18:48;;;;;;;10.80;5.80;;;6.60;99.90;;;;;;6063287;23;20413;-75
2023/10/18 06:21:20;;;;;;;13.50;5.60;;;6.50;99.90;;;;;;6063567;23;20706;-75
2023/10/18 06:23:54;;;;;;;14.97;7.20;;;6.50;99.90;;;;;;6087251;23;20425;-74
2023/10/18 06:26:30;;;;;;;12.77;6.83;;;6.60;99.90;;;;;;6060097;23;20428;-75
2023/10/18 06:29:02;;;;;;;15.00;7.30;;;6.60;99.90;;;;;;6061301;23;20453;-74
2023/10/18 06:31:29;;;;;;;15.03;7.07;;;6.60;99.90;;;;;;6084798;23;20381;-73
2023/10/18 06:34:04;;;;;;;12.97;6.70;;;6.60;99.90;;;;;;6058597;23;20496;-75
2023/10/18 06:36:33;;;;;;;8.53;5.40;;;6.70;99.90;;;;;;6086035;23;20373;-73
2023/10/18 06:38:58;;;;;;;7.30;5.70;;;6.70;99.90;;;;;;6060874;23;20370;-76
2023/10/18 06:41:29;;;;;;;9.73;5.50;;;6.70;99.90;;;;;;6025793;23;20442;-77
2023/10/18 06:43:58;;;;;;;10.10;5.60;;;6.70;99.90;;;;;;5969865;24;20171;-76
2023/10/18 06:46:27;;;;;;;8.20;5.17;;;6.80;99.90;;;;;;5947398;24;20388;-77
2023/10/18 06:48:55;;;;;;;14.10;5.17;;;6.80;99.90;;;;;;5969790;24;20389;-75
2023/10/18 06:51:30;;;;;;;18.17;5.67;;;6.90;99.90;;;;;;5971878;24;20365;-75
2023/10/18 06:54:03;;;;;;;8.00;5.77;;;6.90;99.90;;;;;;5970026;24;20463;-77
2023/10/18 06:56:32;;;;;;;13.40;6.60;;;6.90;99.90;;;;;;5971558;24;20600;-75
2023/10/18 06:59:06;;;;;;;9.80;6.73;;;7.00;99.90;;;;;;5971240;24;20357;-78
2023/10/18 07:01:32;;;;;;;11.70;6.20;;;7.10;99.90;;;;;;5972587;24;20373;-77
2023/10/18 07:04:00;;;;;;;16.80;7.77;;;7.20;99.90;;;;;;5970557;24;20396;-74
2023/10/18 07:06:29;;;;;;;10.73;6.43;;;7.30;99.90;;;;;;5972304;23;20384;-76
2023/10/18 07:08:56;;;;;;;18.70;7.50;;;7.30;99.90;;;;;;5971994;24;20382;-75
2023/10/18 07:11:23;;;;;;;13.77;7.10;;;7.40;99.90;;;;;;5952992;23;20373;-76
2023/10/18 07:13:50;;;;;;;12.63;6.47;;;7.50;99.90;;;;;;6028625;23;20502;-75
2023/10/18 07:21:42;;;;;;;12.30;7.30;;;7.70;99.90;;;;;;6046971;23;20409;-76
2023/10/18 07:24:11;;;;;;;16.70;8.40;;;7.90;99.90;;;;;;6086505;23;20901;-74
2023/10/18 07:26:38;;;;;;;16.50;7.70;;;7.90;99.90;;;;;;6036720;23;20385;-76
2023/10/18 07:29:07;;;;;;;12.07;6.40;;;7.90;99.90;;;;;;6063922;23;20461;-76
2023/10/18 07:31:42;;;;;;;11.43;6.27;;;8.00;99.90;;;;;;6087237;23;20358;-77
2023/10/18 07:34:08;;;;;;;12.23;7.73;;;8.00;99.90;;;;;;6085470;23;20404;-75
2023/10/18 07:36:38;;;;;;;10.80;7.20;;;8.10;99.90;;;;;;6060798;23;20421;-72
2023/10/18 07:39:11;;;;;;;12.30;8.63;;;8.10;99.90;;;;;;6088889;23;20366;-76
2023/10/18 07:41:38;;;;;;;15.40;6.93;;;8.20;99.90;;;;;;6062130;23;20388;-77
2023/10/18 07:44:07;;;;;;;10.73;6.20;;;8.30;99.90;;;;;;6061902;23;20489;-74
2023/10/18 07:46:40;;;;;;;11.30;7.17;;;8.30;99.90;;;;;;6062202;23;20392;-74
2023/10/18 07:49:15;;;;;;;9.30;6.27;;;8.40;99.90;;;;;;6039246;23;20456;-76
2023/10/18 07:51:48;;;;;;;8.70;6.20;;;8.40;99.90;;;;;;6062116;23;20381;-74
2023/10/18 07:54:20;;;;;;;8.47;6.50;;;8.40;99.90;;;;;;6061659;23;20416;-75
2023/10/18 07:56:52;;;;;;;9.40;7.00;;;8.50;99.90;;;;;;6063426;23;20894;-75
2023/10/18 07:59:32;;;;;;;7.70;6.80;;;8.60;99.90;;;;;;6088494;23;20397;-74
2023/10/18 08:04:47;;;;;;;8.80;5.80;;;8.70;99.90;;;;;;6065044;23;20398;-74
2023/10/18 08:07:20;;;;;;;17.23;7.30;;;8.70;99.90;;;;;;6065366;23;20392;-74
2023/10/18 08:09:51;;;;;;;8.50;6.60;;;8.80;99.90;;;;;;6062581;23;20456;-75
2023/10/18 08:14:54;;;;;;;10.03;6.80;;;8.80;99.90;;;;;;6062996;23;20456;-76
2023/10/18 08:17:30;;;;;;;9.10;7.63;;;8.90;99.90;;;;;;6088384;23;20421;-73
2023/10/18 08:22:46;;;;;;;12.77;7.00;;;9.00;99.80;;;;;;6085874;23;20368;-75
2023/10/18 08:25:34;;;;;;;10.50;6.43;;;9.10;99.90;;;;;;6086634;23;20401;-77
2023/10/18 08:28:01;;;;;;;10.33;8.00;;;9.20;99.50;;;;;;6042853;23;20401;-77
2023/10/18 08:31:03;;;;;;;9.17;6.53;;;9.40;97.60;;;;;;6066502;23;20801;-76
2023/10/18 08:33:24;;;;;;;6.90;5.97;;;9.50;97.00;;;;;;6066548;23;20461;-75
2023/10/18 08:35:58;;;;;;;15.93;6.53;;;9.60;96.80;;;;;;6090134;23;20405;-77
2023/10/18 08:38:28;;;;;;;7.20;6.00;;;9.60;95.90;;;;;;6063632;23;20187;-75
2023/10/18 08:41:11;;;;;;;10.17;6.90;;;9.70;95.30;;;;;;6065641;23;20357;-75
2023/10/18 08:43:52;;;;;;;11.40;6.93;;;9.90;95.20;;;;;;6088798;23;20402;-74
2023/10/18 08:46:24;;;;;;;9.77;7.10;;;10.10;92.80;;;;;;6040582;23;20370;-76
2023/10/18 08:48:53;;;;;;;11.87;8.60;;;10.20;92.40;;;;;;6065285;23;20342;-77
2023/10/18 08:51:23;;;;;;;10.30;7.20;;;10.30;91.60;;;;;;6064523;23;20391;-75
2023/10/18 08:56:33;;;;;;;12.50;7.60;;;10.50;90.20;;;;;;6116207;23;20444;-75
2023/10/18 08:59:10;;;;;;;11.10;6.90;;;10.60;89.10;;;;;;6075259;23;20425;-77
2023/10/18 09:02:01;;;;;;;12.83;7.90;;;10.70;86.90;;;;;;6100202;23;20375;-76
2023/10/18 09:04:28;;;;;;;9.93;7.43;;;10.70;84.20;;;;;;6147284;23;20400;-73
2023/10/18 09:06:55;;;;;;;12.97;8.87;;;10.90;83.10;;;;;;6101286;23;20376;-76
2023/10/18 09:09:21;;;;;;;12.60;8.50;;;10.90;82.60;;;;;;6099998;23;20387;-76
2023/10/18 09:11:49;;;;;;;11.33;6.83;;;11.00;81.30;;;;;;6100691;23;20387;-77
2023/10/18 09:14:16;;;;;;;9.73;7.30;;;11.10;80.20;;;;;;6099889;23;20407;-77
2023/10/18 09:16:49;;;;;;;9.00;6.90;;;11.30;79.40;;;;;;6124107;23;20360;-77
2023/10/18 09:19:17;;;;;;;9.80;7.77;;;11.30;78.30;;;;;;6053457;23;20395;-77
2023/10/18 09:24:14;;;;;;;13.40;8.20;;;11.40;76.50;;;;;;6126360;23;20464;-77
2023/10/18 09:26:45;;;;;;;14.17;9.87;;;11.50;76.60;;;;;;6101871;23;20388;-76
2023/10/18 09:29:11;;;;;;;10.90;8.10;;;11.50;75.50;;;;;;6125103;23;20427;-76
2023/10/18 09:31:54;;;;;;;12.67;8.57;;;11.40;74.00;;;;;;6124671;23;20797;-77
2023/10/18 09:34:42;;;;;;;14.30;7.83;;;11.40;72.70;;;;;;6102218;23;20420;-77
2023/10/18 09:37:28;;;;;;;10.37;7.30;;;11.50;73.20;;;;;;6099405;23;20449;-77
2023/10/18 09:40:01;;;;;;;7.87;6.23;;;11.50;72.30;;;;;;6100529;23;20372;-78
2023/10/18 09:42:27;;;;;;;10.30;7.10;;;11.60;71.80;;;;;;6098712;23;20412;-76
2023/10/18 09:44:53;;;;;;;9.90;7.50;;;11.70;71.30;;;;;;6125405;23;20379;-77
2023/10/18 09:47:30;;;;;;;11.93;7.57;;;11.80;71.20;;;;;;6147892;23;20140;-76
2023/10/18 09:50:07;;;;;;;10.03;8.00;;;12.00;70.10;;;;;;6100176;23;20382;-77
2023/10/18 09:52:56;;;;;;;13.20;7.10;;;12.10;69.40;;;;;;6124135;23;20397;-77
2023/10/18 09:55:28;;;;;;;15.20;10.20;;;12.30;69.00;;;;;;6145949;23;20466;-75
2023/10/18 09:58:04;;;;;;;18.50;11.60;;;12.50;68.40;;;;;;6102462;23;20441;-76
2023/10/18 10:00:42;;;;;;;9.90;7.40;;;12.60;68.00;;;;;;6141188;23;20449;-78
2023/10/18 10:03:15;;;;;;;11.60;6.87;;;12.60;66.70;;;;;;6102644;23;20364;-75
2023/10/18 10:05:42;;;;;;;12.93;6.90;;;12.70;65.70;;;;;;6100379;23;20375;-77
2023/10/18 10:08:09;;;;;;;6.07;5.47;;;12.80;65.20;;;;;;6101337;23;20484;-76
2023/10/18 10:10:45;;;;;;;8.17;6.43;;;12.80;64.10;;;;;;6125708;23;20469;-77
2023/10/18 10:13:34;;;;;;;12.00;6.70;;;12.80;64.10;;;;;;6101683;23;20360;-76
2023/10/18 10:16:09;;;;;;;11.40;8.17;;;12.80;63.20;;;;;;6082921;23;20364;-77
2023/10/18 10:18:42;;;;;;;11.97;7.23;;;12.80;63.30;;;;;;6125978;23;20436;-76
2023/10/18 10:21:12;;;;;;;7.03;6.10;;;12.80;63.60;;;;;;6102730;23;20352;-77
2023/10/18 10:23:46;;;;;;;7.50;5.63;;;12.90;63.60;;;;;;6091990;23;20443;-76
2023/10/18 10:26:11;;;;;;;12.03;7.60;;;13.00;62.40;;;;;;6101881;23;20402;-77
2023/10/18 10:32:06;;;;;;;9.07;5.83;;;13.10;61.50;;;;;;6066358;23;20169;-77
2023/10/18 10:34:38;;;;;;;12.40;5.47;;;13.10;61.10;;;;;;6068172;23;20417;-77
2023/10/18 10:37:31;;;;;;;14.70;7.70;;;13.20;61.10;;;;;;6090823;23;20415;-77
2023/10/18 10:40:35;;;;;;;9.93;6.80;;;13.40;60.90;;;;;;6092349;23;20406;-77
2023/10/18 10:43:03;;;;;;;12.17;6.73;;;13.40;60.70;;;;;;6067436;23;20420;-77
2023/10/18 10:54:42;;;;;;;7.33;5.00;;;13.60;59.20;;;;;;6101563;23;20454;-77
2023/10/18 10:57:27;;;;;;;11.07;5.20;;;13.70;58.60;;;;;;6072258;23;20444;-77
2023/10/18 10:59:57;;;;;;;5.93;4.53;;;13.80;58.20;;;;;;5980441;23;20498;-77
2023/10/18 11:02:39;;;;;;;19.63;8.97;;;13.80;58.50;;;;;;5998850;23;20420;-76
2023/10/18 11:05:21;;;;;;;21.23;10.83;;;13.90;58.70;;;;;;6069420;23;20412;-77
2023/10/18 11:07:47;;;;;;;9.07;5.70;;;14.00;58.40;;;;;;6047434;23;20368;-77
2023/10/18 11:10:20;;;;;;;8.77;5.63;;;14.10;58.00;;;;;;6046553;23;20393;-78
2023/10/18 11:12:48;;;;;;;5.97;4.30;;;14.10;58.20;;;;;;6046103;23;20445;-77
2023/10/18 11:15:16;;;;;;;12.13;6.13;;;14.20;57.80;;;;;;6070927;23;20413;-77
2023/10/18 11:17:47;;;;;;;7.23;4.97;;;14.20;58.10;;;;;;6093860;23;20420;-78
2023/10/18 11:20:29;;;;;;;6.93;3.90;;;14.30;58.40;;;;;;6071618;23;20396;-78
2023/10/18 11:36:32;;;;;;;4.77;3.13;;;14.80;56.20;;;;;;6176832;23;20450;-77
2023/10/18 11:47:21;;;;;;;4.30;2.73;;;15.30;55.20;;;;;;6148043;23;20439;-78
2023/10/18 11:52:28;;;;;;;5.47;3.47;;;15.50;54.50;;;;;;6149796;23;20523;-77
2023/10/18 11:55:14;;;;;;;5.60;3.57;;;15.60;54.10;;;;;;6136451;23;20442;-77
2023/10/18 11:57:46;;;;;;;5.10;3.33;;;15.60;53.70;;;;;;6118624;23;20446;-78
2023/10/18 12:02:47;;;;;;;5.70;3.60;;;15.70;53.90;;;;;;6157349;23;20470;-77
2023/10/18 12:08:24;;;;;;;5.53;3.27;;;15.80;53.70;;;;;;6120978;23;20535;-76
2023/10/18 12:13:58;;;;;;;7.07;4.10;;;15.90;53.70;;;;;;6065797;23;20434;-78
2023/10/18 12:16:24;;;;;;;5.23;4.20;;;16.00;53.50;;;;;;6041593;23;20382;-77
2023/10/18 12:18:52;;;;;;;5.03;3.47;;;16.10;53.20;;;;;;6038355;23;20415;-77
2023/10/18 12:21:30;;;;;;;4.70;3.20;;;16.10;52.80;;;;;;5993713;23;20384;-77
2023/10/18 12:24:04;;;;;;;4.17;2.97;;;16.20;52.40;;;;;;6018071;23;20406;-77
2023/10/18 12:26:39;;;;;;;9.20;3.70;;;16.20;52.90;;;;;;6018075;23;20453;-77
2023/10/18 12:29:05;;;;;;;4.03;3.10;;;16.20;52.20;;;;;;6093336;23;20380;-76
2023/10/18 12:34:14;;;;;;;6.70;3.33;;;16.20;51.50;;;;;;6134338;23;20443;-78
2023/10/18 12:36:49;;;;;;;9.33;3.80;;;16.10;51.80;;;;;;6103907;23;20360;-77
2023/10/18 12:39:22;;;;;;;4.23;2.73;;;16.10;51.70;;;;;;6041559;23;20378;-77
2023/10/18 12:41:55;;;;;;;9.17;3.10;;;16.00;51.80;;;;;;6040739;23;20404;-78
2023/10/18 12:47:23;;;;;;;4.17;2.67;;;16.00;52.10;;;;;;6106340;23;20468;-78
2023/10/18 12:49:56;;;;;;;5.10;2.30;;;16.00;52.10;;;;;;6095863;23;20420;-76
2023/10/18 12:57:55;;;;;;;5.83;3.87;;;16.00;52.60;;;;;;6035150;23;20450;-78
2023/10/18 13:00:32;;;;;;;5.17;2.40;;;16.00;53.10;;;;;;5989202;23;20408;-78
2023/10/18 13:09:25;;;;;;;3.70;2.20;;;16.20;52.80;;;;;;6091506;23;20467;-76
2023/10/18 13:12:00;;;;;;;3.87;2.70;;;16.20;52.90;;;;;;6080852;23;20396;-77
2023/10/18 13:14:29;;;;;;;5.63;3.37;;;16.20;52.60;;;;;;6098659;23;20440;-78
2023/10/18 13:17:19;;;;;;;4.03;2.90;;;16.30;52.30;;;;;;6062872;23;20472;-77
2023/10/18 13:19:51;;;;;;;7.23;3.30;;;16.30;52.10;;;;;;6063979;23;20419;-77
2023/10/18 13:22:40;;;;;;;8.57;4.40;;;16.20;52.50;;;;;;6053487;23;20448;-76
2023/10/18 13:25:09;;;;;;;9.93;4.20;;;16.20;52.80;;;;;;6120875;23;20435;-77
2023/10/18 13:27:49;;;;;;;4.80;2.97;;;16.30;52.50;;;;;;6097856;23;20404;-76
2023/10/18 13:35:57;;;;;;;8.70;3.53;;;16.10;53.40;;;;;;6116592;23;20455;-76
2023/10/18 13:38:23;;;;;;;6.47;3.30;;;16.10;53.60;;;;;;6149263;23;20418;-77
2023/10/18 13:40:52;;;;;;;6.50;3.90;;;16.10;53.20;;;;;;6103435;23;20399;-77
2023/10/18 13:43:19;;;;;;;8.30;4.77;;;16.10;53.50;;;;;;6125870;23;20405;-77
2023/10/18 13:46:19;;;;;;;7.97;3.60;;;16.00;54.20;;;;;;6153050;23;20381;-78
2023/10/18 13:48:54;;;;;;;4.30;3.10;;;16.00;53.60;;;;;;6150258;23;20374;-78
2023/10/18 13:54:52;;;;;;;5.07;3.63;;;15.90;53.90;;;;;;6108704;23;20500;-78
2023/10/18 13:57:20;;;;;;;6.70;3.10;;;16.00;53.60;;;;;;6092488;23;20416;-76
2023/10/18 13:59:45;;;;;;;3.97;2.83;;;15.90;53.80;;;;;;6066175;23;20419;-76
2023/10/18 14:02:17;;;;;;;5.10;2.80;;;15.90;54.10;;;;;;6066867;23;20394;-77
2023/10/18 14:04:48;;;;;;;11.03;3.30;;;15.90;53.70;;;;;;6067262;23;20429;-77
2023/10/18 14:07:20;;;;;;;5.67;3.63;;;15.80;54.20;;;;;;6009645;23;20389;-76
2023/10/18 14:10:07;;;;;;;6.90;3.43;;;15.80;54.50;;;;;;6009997;23;20423;-78
2023/10/18 14:12:35;;;;;;;6.10;2.93;;;15.80;54.60;;;;;;6009720;23;20439;-78
2023/10/18 14:15:20;;;;;;;5.53;3.70;;;15.80;54.60;;;;;;6032016;23;20643;-75
2023/10/18 14:18:07;;;;;;;6.03;3.10;;;15.70;55.50;;;;;;6030448;23;20451;-77
2023/10/18 14:20:43;;;;;;;3.63;2.70;;;15.80;55.20;;;;;;6033975;23;20175;-78
2023/10/18 14:25:45;;;;;;;11.50;4.33;;;15.90;54.70;;;;;;6114991;23;20445;-76
2023/10/18 14:28:27;;;;;;;5.83;3.57;;;15.90;55.00;;;;;;6123107;23;20366;-77
2023/10/18 14:30:57;;;;;;;5.00;2.97;;;15.90;54.90;;;;;;6091468;23;20441;-76
2023/10/18 14:33:27;;;;;;;3.87;2.83;;;15.80;55.00;;;;;;6126135;23;20381;-77
2023/10/18 14:35:54;;;;;;;6.73;2.87;;;15.80;55.10;;;;;;6122102;23;20378;-76
2023/10/18 14:38:36;;;;;;;5.13;3.30;;;15.80;55.30;;;;;;6122673;23;20447;-77
2023/10/18 14:41:24;;;;;;;6.17;4.30;;;15.70;55.50;;;;;;6124597;23;20377;-76
2023/10/18 14:44:09;;;;;;;5.20;2.83;;;15.70;55.20;;;;;;6123818;23;20408;-75
2023/10/18 14:52:00;;;;;;;7.10;4.13;;;15.40;56.10;;;;;;6094654;23;20539;-78
2023/10/18 14:54:25;;;;;;;11.43;3.97;;;15.40;56.20;;;;;;6061932;23;20426;-76
2023/10/18 14:56:52;;;;;;;8.00;4.47;;;15.50;56.00;;;;;;5979425;23;20139;-77
2023/10/18 14:59:20;;;;;;;9.50;5.20;;;15.40;56.00;;;;;;5979384;24;20208;-76
2023/10/18 15:01:59;;;;;;;6.50;3.20;;;15.30;56.30;;;;;;5956173;24;20401;-78
2023/10/18 15:04:36;;;;;;;5.37;2.50;;;15.30;56.10;;;;;;6020965;23;20485;-77
2023/10/18 15:07:05;;;;;;;4.40;2.53;;;15.20;56.10;;;;;;6145069;23;20460;-77
2023/10/18 15:09:31;;;;;;;5.70;3.33;;;15.20;56.10;;;;;;6158073;23;20371;-77
2023/10/18 15:11:58;;;;;;;10.93;3.77;;;15.10;55.90;;;;;;6133086;23;20406;-76
2023/10/18 15:17:05;;;;;;;4.00;2.63;;;15.00;56.20;;;;;;6068930;23;20445;-76